• Join FlightAware (Why Join?)
  • Login
  • US Flag 
05:52PM EST


 

Airport Tracker/Info


-or-


 

Live Flight TrackerFlight Track Log ✈ XSR253 ✈ 13-Jun-2013 ✈ KALB - KBUF

Flight Track Log - Related Links

Times and Time Zones

All times are in EDT time to prevent confusion due to time zone crossing. See the XSR253 flight status page for this flight to view local times or setup timezone preferences in your user account.

Time Position Orientation Groundspeed Altitude Reporting Facility
EDT Latitude Longitude Course Direction KTS MPH feet Rate Location/Type
04:30PM 42.8000 -73.8578 321° Northwest 203 234 4,000  Level Boston Center
04:31PM 42.7908 -73.9311 260° West 193 222 7,000 2,700 Climbing Boston Center
04:32PM 42.7814 -74.0100 261° West 198 228 9,800 1,440 Climbing Boston Center
04:33PM 42.7719 -74.0919 261° West 219 252 10,000 660 Climbing Boston Center
04:34PM 42.7686 -74.1739 267° West 247 284 11,200 1,680 Climbing Boston Center
04:35PM 42.7736 -74.2561 275° West 226 260 13,400 1,800 Climbing Boston Center
04:36PM 42.7786 -74.3242 276° West 204 235 14,800 1,440 Climbing Boston Center
04:38PM 42.7833 -74.4175 274° West 198 228 16,600 1,260 Climbing Boston Center
04:39PM 42.7864 -74.4828 274° West 198 228 17,700 1,200 Climbing Boston Center
04:40PM 42.7911 -74.5678 274° West 204 235 19,000 1,020 Climbing Boston Center
04:41PM 42.7939 -74.6358 273° West 204 235 19,800 720 Climbing Boston Center
04:42PM 42.7986 -74.7125 275° West 204 235 20,500 780 Climbing Boston Center
04:43PM 42.8033 -74.7861 275° West 199 229 21,400 720 Climbing Boston Center
04:44PM 42.8061 -74.8628 273° West 199 229 22,000 300 Climbing Boston Center
04:45PM 42.8125 -74.9533 276° West 214 246 22,000  Level Boston Center
04:46PM 42.8167 -75.0469 274° West 235 270 22,000  Level Boston Center
04:47PM 42.8225 -75.1436 275° West 252 290 22,000  Level Boston Center
04:48PM 42.8267 -75.2400 273° West 257 296 22,000  Level Boston Center
04:49PM 42.8303 -75.3394 273° West 257 296 22,000  Level Boston Center
04:50PM 42.8361 -75.4386 275° West 257 296 22,000 -60 Level Boston Center
04:51PM 42.8397 -75.5408 273° West 267 307 21,900  Descending Boston Center
04:52PM 42.8431 -75.6431 273° West 272 313 22,000  Climbing Boston Center
04:53PM 42.8483 -75.7453 274° West 277 319 22,000  Level Boston Center
04:54PM 42.8558 -75.8506 276° West 277 319 22,000 -60 Level Boston Center
04:55PM 42.8586 -75.9583 272° West 277 319 21,900  Descending Boston Center
04:57PM 42.8658 -76.1750 273° West 281 323 22,000  Climbing Cleveland Center
04:58PM 42.8700 -76.2794 273° West 281 323 22,000  Level Cleveland Center
04:59PM 42.8739 -76.3869 273° West 286 329 22,000  Level Cleveland Center
05:00PM 42.8775 -76.4917 273° West 286 329 22,000 -60 Level Cleveland Center
05:01PM 42.8833 -76.5961 274° West 286 329 21,900  Descending Cleveland Center
05:02PM 42.8875 -76.7150 273° West 286 329 22,000  Climbing Cleveland Center
05:03PM 42.8911 -76.8253 273° West 291 335 22,000  Level Cleveland Center
05:04PM 42.9069 -76.9292 282° West 285 328 22,000 -480 Level Cleveland Center
05:05PM 42.9269 -77.0414 284° West 296 341 21,100 -900 Descending Cleveland Center
05:06PM 42.9469 -77.1511 284° West 296 341 20,300 -840 Descending Cleveland Center
05:06PM 42.9503 -77.1906 277° West 291 335 20,000 -1,140 Descending Cleveland Center
05:07PM 42.9647 -77.2578 286° West 296 341 19,200 -1,200 Descending Cleveland Center
05:07PM 42.9700 -77.2944 281° West 286 329 18,800 -1,320 Descending Cleveland Center
05:08PM 42.9822 -77.3619 284° West 296 341 17,900 -1,320 Descending Cleveland Center
05:09PM 42.9997 -77.4689 283° West 296 341 16,700 -1,200 Descending Cleveland Center
05:10PM 43.0172 -77.5761 283° West 296 341 15,600 -1,440 Descending Cleveland Center
05:11PM 43.0344 -77.6831 282° West 296 341 13,900 -1,740 Descending Cleveland Center
05:12PM 43.0539 -77.7958 283° West 296 341 12,200 -1,800 Descending Cleveland Center
05:13PM 43.0689 -77.9033 281° West 296 341 10,400 -1,920 Descending Cleveland Center
05:14PM 43.0861 -78.0106 282° West 296 341 8,400 -1,200 Descending Cleveland Center
05:15PM 43.0739 -78.1192 261° West 291 335 8,000 -240 Descending Cleveland Center
05:16PM 43.0592 -78.2219 259° West 286 329 8,000 -480 Level Cleveland Center
05:18PM 42.9667 -78.4500 241° Southwest 303 349 6,600 -840 Descending Buffalo TRACON
05:19PM 42.9333 -78.5500 246° West 300 345 5,400 -1,200 Descending Buffalo TRACON
05:20PM 42.8833 -78.6167 224° Southwest 287 330 4,200 -720 Descending Buffalo TRACON
05:21PM 42.8333 -78.7000 231° Southwest 243 280 4,000 -240 Descending Buffalo TRACON
05:22PM 42.7833 -78.7667 224° Southwest 248 285 3,800 -540 Descending Buffalo TRACON
05:23PM 42.7833 -78.8667 270° West 242 278 3,000 -660 Descending Buffalo TRACON
05:24PM 42.8333 -78.8833 346° North 164 189 2,500 -300 Descending Buffalo TRACON
05:25PM 42.8500 -78.8333 66° East 140 161 2,500 -180 Level Buffalo TRACON
05:26PM 42.8833 -78.8000 36° Northeast 110 127 2,200 -480 Descending Buffalo TRACON
05:27PM 42.9000 -78.7833 36° Northeast 92 106 1,600 -600 Descending Buffalo TRACON
05:28PM 42.9167 -78.7500 56° Northeast 99 114 1,100 -540 Descending Buffalo TRACON